<?xml version='1.0' encoding='UTF-8'?><gpx version="1.1" creator="JPX - https://github.com/jenetics/jpx" xmlns="http://www.topografix.com/GPX/1/1"><trk><trkseg><trkpt lat="46.025596764645506" lon="13.383650723328733"><ele>78.0</ele><time>2026-04-11T09:57:59Z</time></trkpt><trkpt lat="46.025665831756896" lon="13.383617735332043"><ele>78.0</ele><time>2026-04-11T09:58:04Z</time></trkpt><trkpt lat="46.025728576483935" lon="13.383580752548156"><ele>78.0</ele><time>2026-04-11T09:58:10Z</time></trkpt><trkpt lat="46.02578343018515" lon="13.383533738354561"><ele>78.0</ele><time>2026-04-11T09:58:16Z</time></trkpt><trkpt lat="46.025840522783916" lon="13.383486147492892"><ele>78.0</ele><time>2026-04-11T09:58:22Z</time></trkpt><trkpt lat="46.025901432329746" lon="13.383443031547984"><ele>78.0</ele><time>2026-04-11T09:58:28Z</time></trkpt><trkpt lat="46.025963702590495" lon="13.383418450327234"><ele>78.0</ele><time>2026-04-11T09:58:33Z</time></trkpt><trkpt lat="46.02602666011216" lon="13.383374380707195"><ele>78.0</ele><time>2026-04-11T09:58:38Z</time></trkpt><trkpt lat="46.026093708032825" lon="13.383331766713022"><ele>78.0</ele><time>2026-04-11T09:58:44Z</time></trkpt><trkpt lat="46.026145759424665" lon="13.383275163844527"><ele>78.0</ele><time>2026-04-11T09:58:50Z</time></trkpt><trkpt lat="46.02617994334455" lon="13.383173865885459"><ele>78.0</ele><time>2026-04-11T09:59:01Z</time></trkpt><trkpt lat="46.02618389999307" lon="13.383050920603527"><ele>78.0</ele><time>2026-04-11T09:59:26Z</time></trkpt><trkpt lat="46.02616683195335" lon="13.382958706779162"><ele>78.0</ele><time>2026-04-11T09:59:31Z</time></trkpt><trkpt lat="46.026172720626036" lon="13.382865096521066"><ele>78.0</ele><time>2026-04-11T09:59:39Z</time></trkpt><trkpt lat="46.02616321128371" lon="13.382767954211788"><ele>77.85714285714286</ele><time>2026-04-11T09:59:46Z</time></trkpt><trkpt lat="46.02622826736231" lon="13.38274729379112"><ele>77.71428571428571</ele><time>2026-04-11T10:00:07Z</time></trkpt><trkpt lat="46.02628540905264" lon="13.382790493033575"><ele>77.57142857142857</ele><time>2026-04-11T10:00:12Z</time></trkpt><trkpt lat="46.02634453772173" lon="13.382832330455411"><ele>77.42857142857143</ele><time>2026-04-11T10:00:17Z</time></trkpt><trkpt lat="46.02641011727172" lon="13.38287642802283"><ele>77.28571428571428</ele><time>2026-04-11T10:00:23Z</time></trkpt><trkpt lat="46.02646433954508" lon="13.382951430681976"><ele>77.14285714285714</ele><time>2026-04-11T10:00:29Z</time></trkpt><trkpt lat="46.02651337875181" lon="13.383009562044172"><ele>77.0</ele><time>2026-04-11T10:00:37Z</time></trkpt><trkpt lat="46.02653113725335" lon="13.382918722226659"><ele>77.0</ele><time>2026-04-11T10:00:48Z</time></trkpt><trkpt lat="46.026475564549074" lon="13.38284977957966"><ele>77.0</ele><time>2026-04-11T10:00:54Z</time></trkpt><trkpt lat="46.02642701047504" lon="13.38276989587897"><ele>77.0</ele><time>2026-04-11T10:01:01Z</time></trkpt><trkpt lat="46.02637235366397" lon="13.382692642105987"><ele>77.0</ele><time>2026-04-11T10:01:07Z</time></trkpt><trkpt lat="46.026311231187414" lon="13.38264883909784"><ele>77.0</ele><time>2026-04-11T10:01:13Z</time></trkpt><trkpt lat="46.02626464771865" lon="13.38258753924216"><ele>77.0</ele><time>2026-04-11T10:01:19Z</time></trkpt><trkpt lat="46.02621897605988" lon="13.382515935004223"><ele>77.0</ele><time>2026-04-11T10:01:25Z</time></trkpt><trkpt lat="46.02617365222989" lon="13.3824496540582"><ele>77.0</ele><time>2026-04-11T10:01:31Z</time></trkpt><trkpt lat="46.026124807339485" lon="13.382372649927744"><ele>77.0</ele><time>2026-04-11T10:01:36Z</time></trkpt><trkpt lat="46.02609116596289" lon="13.382282856320067"><ele>77.0</ele><time>2026-04-11T10:01:43Z</time></trkpt><trkpt lat="46.02605003614631" lon="13.382206725121378"><ele>77.0</ele><time>2026-04-11T10:01:47.999Z</time></trkpt><trkpt lat="46.02600471496982" lon="13.382137942143403"><ele>77.0</ele><time>2026-04-11T10:01:53.999Z</time></trkpt><trkpt lat="46.025938858874184" lon="13.38209062234232"><ele>77.0</ele><time>2026-04-11T10:02:00Z</time></trkpt><trkpt lat="46.02589893926704" lon="13.382012459613845"><ele>77.0</ele><time>2026-04-11T10:02:06Z</time></trkpt><trkpt lat="46.02584751041045" lon="13.381957108665961"><ele>76.85714285714286</ele><time>2026-04-11T10:02:11Z</time></trkpt><trkpt lat="46.025802803454695" lon="13.381878046577745"><ele>76.71428571428572</ele><time>2026-04-11T10:02:17Z</time></trkpt><trkpt lat="46.02573779110231" lon="13.381846795419483"><ele>76.57142857142857</ele><time>2026-04-11T10:02:23Z</time></trkpt><trkpt lat="46.025667493441304" lon="13.381825034330003"><ele>76.42857142857143</ele><time>2026-04-11T10:02:29Z</time></trkpt><trkpt lat="46.02559729576882" lon="13.38178842788823"><ele>76.28571428571429</ele><time>2026-04-11T10:02:37Z</time></trkpt><trkpt lat="46.025553856938394" lon="13.381708967900149"><ele>76.14285714285714</ele><time>2026-04-11T10:02:42Z</time></trkpt><trkpt lat="46.02551606275654" lon="13.381628535717152"><ele>76.0</ele><time>2026-04-11T10:02:48Z</time></trkpt><trkpt lat="46.02548345705286" lon="13.381544891907888"><ele>76.0</ele><time>2026-04-11T10:02:55Z</time></trkpt><trkpt lat="46.02545877809859" lon="13.38146053677925"><ele>76.0</ele><time>2026-04-11T10:03:01Z</time></trkpt><trkpt lat="46.0254354786764" lon="13.381368141856793"><ele>76.0</ele><time>2026-04-11T10:03:08Z</time></trkpt><trkpt lat="46.02540039038057" lon="13.381289141020531"><ele>76.0</ele><time>2026-04-11T10:03:14Z</time></trkpt><trkpt lat="46.02539668675468" lon="13.381191228859224"><ele>76.0</ele><time>2026-04-11T10:03:20Z</time></trkpt><trkpt lat="46.025395370971" lon="13.381100362259799"><ele>76.0</ele><time>2026-04-11T10:03:26Z</time></trkpt><trkpt lat="46.02538604536466" lon="13.381005410118854"><ele>76.0</ele><time>2026-04-11T10:03:33Z</time></trkpt><trkpt lat="46.02537474486791" lon="13.380915062382885"><ele>75.42857142857143</ele><time>2026-04-11T10:03:40Z</time></trkpt><trkpt lat="46.02536476535243" lon="13.380814345318178"><ele>74.85714285714286</ele><time>2026-04-11T10:03:47Z</time></trkpt><trkpt lat="46.02534449737468" lon="13.380711894997708"><ele>74.28571428571429</ele><time>2026-04-11T10:04:03Z</time></trkpt><trkpt lat="46.02533246755946" lon="13.380618982758003"><ele>73.71428571428572</ele><time>2026-04-11T10:04:14Z</time></trkpt><trkpt lat="46.02529485020618" lon="13.380532116718808"><ele>73.14285714285714</ele><time>2026-04-11T10:04:21Z</time></trkpt><trkpt lat="46.02526518535554" lon="13.380448460059387"><ele>72.57142857142858</ele><time>2026-04-11T10:04:28Z</time></trkpt><trkpt lat="46.025209493645285" lon="13.380386686986096"><ele>72.0</ele><time>2026-04-11T10:04:34Z</time></trkpt><trkpt lat="46.025167931317014" lon="13.380304565756685"><ele>71.85714285714286</ele><time>2026-04-11T10:05:00Z</time></trkpt><trkpt lat="46.02516498233949" lon="13.380210251719483"><ele>71.71428571428572</ele><time>2026-04-11T10:05:08Z</time></trkpt><trkpt lat="46.02512559457227" lon="13.380127449721575"><ele>71.57142857142857</ele><time>2026-04-11T10:05:15Z</time></trkpt><trkpt lat="46.02509202792849" lon="13.380046205796301"><ele>71.42857142857143</ele><time>2026-04-11T10:05:21Z</time></trkpt><trkpt lat="46.02505842708194" lon="13.379960868275813"><ele>71.28571428571428</ele><time>2026-04-11T10:05:28Z</time></trkpt><trkpt lat="46.02501281301415" lon="13.379894062012667"><ele>71.14285714285714</ele><time>2026-04-11T10:05:34Z</time></trkpt><trkpt lat="46.02495405145147" lon="13.379846005037129"><ele>71.0</ele><time>2026-04-11T10:05:40Z</time></trkpt><trkpt lat="46.0248879515309" lon="13.379851417986549"><ele>71.14285714285714</ele><time>2026-04-11T10:05:47Z</time></trkpt><trkpt lat="46.02481969739874" lon="13.379842287459349"><ele>71.28571428571428</ele><time>2026-04-11T10:05:55Z</time></trkpt><trkpt lat="46.02475079178483" lon="13.379810689948808"><ele>71.42857142857143</ele><time>2026-04-11T10:06:02Z</time></trkpt><trkpt lat="46.024696990675324" lon="13.379753982822145"><ele>71.57142857142857</ele><time>2026-04-11T10:06:08Z</time></trkpt><trkpt lat="46.024641015196906" lon="13.37968174632627"><ele>71.71428571428572</ele><time>2026-04-11T10:06:16Z</time></trkpt><trkpt lat="46.02457949138067" lon="13.379631148481476"><ele>71.85714285714286</ele><time>2026-04-11T10:06:22Z</time></trkpt><trkpt lat="46.0245167538382" lon="13.379643125628402"><ele>72.0</ele><time>2026-04-11T10:06:30Z</time></trkpt><trkpt lat="46.024454845023314" lon="13.379684075989875"><ele>72.00000000000001</ele><time>2026-04-11T10:06:37Z</time></trkpt><trkpt lat="46.02438234565671" lon="13.379674265495648"><ele>72.0</ele><time>2026-04-11T10:06:44Z</time></trkpt><trkpt lat="46.02432286107666" lon="13.379632769147573"><ele>72.0</ele><time>2026-04-11T10:06:50Z</time></trkpt><trkpt lat="46.02425872841966" lon="13.379621401939996"><ele>72.0</ele><time>2026-04-11T10:06:56Z</time></trkpt><trkpt lat="46.0241854964455" lon="13.379622912161324"><ele>72.0</ele><time>2026-04-11T10:07:03Z</time></trkpt><trkpt lat="46.02411759933718" lon="13.379616714025216"><ele>72.00000000000001</ele><time>2026-04-11T10:07:09Z</time></trkpt><trkpt lat="46.02404364339511" lon="13.379624317729284"><ele>72.0</ele><time>2026-04-11T10:07:15Z</time></trkpt><trkpt lat="46.023974444420226" lon="13.379621744053619"><ele>72.28571428571429</ele><time>2026-04-11T10:07:21Z</time></trkpt><trkpt lat="46.0239087846789" lon="13.379617609171216"><ele>72.57142857142857</ele><time>2026-04-11T10:07:27Z</time></trkpt><trkpt lat="46.02385029644102" lon="13.379569904640004"><ele>72.85714285714286</ele><time>2026-04-11T10:07:33Z</time></trkpt><trkpt lat="46.02384197259936" lon="13.379477973211165"><ele>73.14285714285714</ele><time>2026-04-11T10:07:52Z</time></trkpt><trkpt lat="46.02387931761232" lon="13.379396034558031"><ele>73.42857142857143</ele><time>2026-04-11T10:07:58Z</time></trkpt><trkpt lat="46.02388630594159" lon="13.379293570195788"><ele>73.71428571428572</ele><time>2026-04-11T10:08:04Z</time></trkpt><trkpt lat="46.02388105157378" lon="13.379186801933027"><ele>74.0</ele><time>2026-04-11T10:08:11Z</time></trkpt><trkpt lat="46.02383431143938" lon="13.379123381829725"><ele>74.0</ele><time>2026-04-11T10:08:17Z</time></trkpt><trkpt lat="46.0237816891994" lon="13.379063148602944"><ele>74.0</ele><time>2026-04-11T10:08:23Z</time></trkpt><trkpt lat="46.02373263098775" lon="13.379003928749222"><ele>74.0</ele><time>2026-04-11T10:08:29Z</time></trkpt><trkpt lat="46.023678368843065" lon="13.378942598129598"><ele>74.0</ele><time>2026-04-11T10:08:36Z</time></trkpt><trkpt lat="46.02360317124503" lon="13.378904728211333"><ele>74.0</ele><time>2026-04-11T10:08:45Z</time></trkpt><trkpt lat="46.02355051065551" lon="13.378852560322175"><ele>74.0</ele><time>2026-04-11T10:08:51Z</time></trkpt><trkpt lat="46.02349510351061" lon="13.378801807095309"><ele>74.0</ele><time>2026-04-11T10:08:57Z</time></trkpt><trkpt lat="46.023424405038014" lon="13.378769647917848"><ele>74.0</ele><time>2026-04-11T10:09:04Z</time></trkpt><trkpt lat="46.023358668213476" lon="13.378760049158862"><ele>74.0</ele><time>2026-04-11T10:09:11Z</time></trkpt><trkpt lat="46.02328192441394" lon="13.378764419876573"><ele>74.0</ele><time>2026-04-11T10:09:17.001Z</time></trkpt><trkpt lat="46.023205450682894" lon="13.378758480628168"><ele>74.0</ele><time>2026-04-11T10:09:23.001Z</time></trkpt><trkpt lat="46.02314163591329" lon="13.378763909682426"><ele>74.0</ele><time>2026-04-11T10:09:29.001Z</time></trkpt><trkpt lat="46.023079621426504" lon="13.378746463336674"><ele>74.0</ele><time>2026-04-11T10:09:34.001Z</time></trkpt><trkpt lat="46.02300808880256" lon="13.378711299213954"><ele>74.0</ele><time>2026-04-11T10:09:40.001Z</time></trkpt><trkpt lat="46.02294160050257" lon="13.378680784912893"><ele>73.71428571428572</ele><time>2026-04-11T10:09:47.001Z</time></trkpt><trkpt lat="46.022869716409545" lon="13.378679380755486"><ele>73.42857142857143</ele><time>2026-04-11T10:09:54Z</time></trkpt><trkpt lat="46.02280962717076" lon="13.37872988386973"><ele>73.14285714285714</ele><time>2026-04-11T10:10:01Z</time></trkpt><trkpt lat="46.022749212038626" lon="13.378757650010709"><ele>72.85714285714286</ele><time>2026-04-11T10:10:07Z</time></trkpt><trkpt lat="46.02271018274521" lon="13.378833922620261"><ele>72.57142857142857</ele><time>2026-04-11T10:10:20Z</time></trkpt><trkpt lat="46.02273532263758" lon="13.378917731536196"><ele>72.28571428571429</ele><time>2026-04-11T10:10:33Z</time></trkpt><trkpt lat="46.02279636323435" lon="13.378953456519115"><ele>72.0</ele><time>2026-04-11T10:10:43Z</time></trkpt><trkpt lat="46.02286110077203" lon="13.378996097640103"><ele>72.00000000000001</ele><time>2026-04-11T10:10:51Z</time></trkpt><trkpt lat="46.02292520024504" lon="13.379034946926685"><ele>72.0</ele><time>2026-04-11T10:10:58Z</time></trkpt><trkpt lat="46.022987411645104" lon="13.379068737541495"><ele>72.0</ele><time>2026-04-11T10:11:17Z</time></trkpt><trkpt lat="46.02304013473893" lon="13.379120803090402"><ele>72.0</ele><time>2026-04-11T10:11:22Z</time></trkpt><trkpt lat="46.023105814809036" lon="13.379150935951808"><ele>72.0</ele><time>2026-04-11T10:11:30Z</time></trkpt><trkpt lat="46.02317312386937" lon="13.379146907833874"><ele>72.00000000000001</ele><time>2026-04-11T10:11:36Z</time></trkpt><trkpt lat="46.023238474130174" lon="13.37916103910598"><ele>72.0</ele><time>2026-04-11T10:11:42Z</time></trkpt><trkpt lat="46.02329365521639" lon="13.379227230335621"><ele>72.28571428571429</ele><time>2026-04-11T10:11:52Z</time></trkpt><trkpt lat="46.023336231767075" lon="13.379303735403981"><ele>72.57142857142857</ele><time>2026-04-11T10:11:59Z</time></trkpt><trkpt lat="46.0233793753808" lon="13.379370670841139"><ele>72.85714285714286</ele><time>2026-04-11T10:12:05Z</time></trkpt><trkpt lat="46.02343023138062" lon="13.379432120607431"><ele>73.14285714285714</ele><time>2026-04-11T10:12:18Z</time></trkpt><trkpt lat="46.02347635183913" lon="13.379509665323543"><ele>73.42857142857143</ele><time>2026-04-11T10:12:25Z</time></trkpt><trkpt lat="46.023514157925405" lon="13.379599785577183"><ele>73.71428571428572</ele><time>2026-04-11T10:12:30Z</time></trkpt><trkpt lat="46.02355302569971" lon="13.379687172000613"><ele>74.0</ele><time>2026-04-11T10:12:37Z</time></trkpt><trkpt lat="46.02359743774017" lon="13.3797632782584"><ele>74.14285714285714</ele><time>2026-04-11T10:12:42Z</time></trkpt><trkpt lat="46.02364606222594" lon="13.37982591652847"><ele>74.28571428571428</ele><time>2026-04-11T10:12:47Z</time></trkpt><trkpt lat="46.02370671892191" lon="13.379851226922648"><ele>74.42857142857142</ele><time>2026-04-11T10:12:51Z</time></trkpt><trkpt lat="46.023773337242936" lon="13.379880117475805"><ele>74.57142857142857</ele><time>2026-04-11T10:12:57Z</time></trkpt><trkpt lat="46.02384185929263" lon="13.379878318976411"><ele>74.71428571428571</ele><time>2026-04-11T10:13:02Z</time></trkpt><trkpt lat="46.023907124609224" lon="13.379840324476817"><ele>74.85714285714285</ele><time>2026-04-11T10:13:07Z</time></trkpt><trkpt lat="46.02397152239948" lon="13.379815115555173"><ele>75.0</ele><time>2026-04-11T10:13:12Z</time></trkpt><trkpt lat="46.02403640722382" lon="13.37981715267256"><ele>74.99999999999999</ele><time>2026-04-11T10:13:17Z</time></trkpt><trkpt lat="46.024098282992135" lon="13.379793960600729"><ele>75.0</ele><time>2026-04-11T10:13:24Z</time></trkpt><trkpt lat="46.024162713799946" lon="13.379771889425417"><ele>75.0</ele><time>2026-04-11T10:13:29Z</time></trkpt><trkpt lat="46.024224898767656" lon="13.37978860567763"><ele>75.0</ele><time>2026-04-11T10:13:36Z</time></trkpt><trkpt lat="46.02429572379915" lon="13.379794078542705"><ele>75.0</ele><time>2026-04-11T10:13:42Z</time></trkpt><trkpt lat="46.02435824508209" lon="13.379834024254894"><ele>74.99999999999999</ele><time>2026-04-11T10:13:50Z</time></trkpt><trkpt lat="46.02440127486711" lon="13.379901802239385"><ele>75.0</ele><time>2026-04-11T10:13:57Z</time></trkpt><trkpt lat="46.02437107700121" lon="13.380006621104169"><ele>75.14285714285714</ele><time>2026-04-11T10:14:05Z</time></trkpt><trkpt lat="46.02436892843201" lon="13.380099171863774"><ele>75.28571428571428</ele><time>2026-04-11T10:14:10Z</time></trkpt><trkpt lat="46.024395148520036" lon="13.380191976437075"><ele>75.42857142857142</ele><time>2026-04-11T10:14:16Z</time></trkpt><trkpt lat="46.0244574491484" lon="13.3802403676469"><ele>75.57142857142857</ele><time>2026-04-11T10:14:22Z</time></trkpt><trkpt lat="46.02450208103102" lon="13.380154381238132"><ele>75.71428571428572</ele><time>2026-04-11T10:14:27Z</time></trkpt><trkpt lat="46.02457045522079" lon="13.380128224612879"><ele>75.85714285714285</ele><time>2026-04-11T10:14:33Z</time></trkpt><trkpt lat="46.02463248423223" lon="13.380145406323528"><ele>76.0</ele><time>2026-04-11T10:14:38Z</time></trkpt><trkpt lat="46.0247023396603" lon="13.380184539214609"><ele>76.0</ele><time>2026-04-11T10:14:44Z</time></trkpt><trkpt lat="46.024752341731336" lon="13.380253915332268"><ele>76.0</ele><time>2026-04-11T10:14:49Z</time></trkpt><trkpt lat="46.0248029949808" lon="13.380319324892696"><ele>76.0</ele><time>2026-04-11T10:14:56Z</time></trkpt><trkpt lat="46.02486850940373" lon="13.380320219627487"><ele>76.0</ele><time>2026-04-11T10:15:03Z</time></trkpt><trkpt lat="46.024931496540546" lon="13.380378976519767"><ele>76.0</ele><time>2026-04-11T10:15:10Z</time></trkpt><trkpt lat="46.02498475623294" lon="13.380442522488583"><ele>76.0</ele><time>2026-04-11T10:15:15Z</time></trkpt><trkpt lat="46.02503219815785" lon="13.38052496430535"><ele>76.0</ele><time>2026-04-11T10:15:21Z</time></trkpt><trkpt lat="46.02503038881802" lon="13.380618240069872"><ele>76.42857142857143</ele><time>2026-04-11T10:15:28Z</time></trkpt><trkpt lat="46.02503748447796" lon="13.380718539841748"><ele>76.85714285714286</ele><time>2026-04-11T10:15:35Z</time></trkpt><trkpt lat="46.02506808798229" lon="13.380800016837698"><ele>77.28571428571429</ele><time>2026-04-11T10:15:41Z</time></trkpt><trkpt lat="46.02500568470141" lon="13.380855183678849"><ele>77.71428571428572</ele><time>2026-04-11T10:15:53Z</time></trkpt><trkpt lat="46.02492932592542" lon="13.380834657655937"><ele>78.14285714285714</ele><time>2026-04-11T10:15:59Z</time></trkpt><trkpt lat="46.024853548704705" lon="13.380846354214388"><ele>78.57142857142858</ele><time>2026-04-11T10:16:05Z</time></trkpt><trkpt lat="46.02478787115674" lon="13.380888297118693"><ele>79.0</ele><time>2026-04-11T10:16:11Z</time></trkpt><trkpt lat="46.024768360936974" lon="13.380975462640636"><ele>79.00000000000001</ele><time>2026-04-11T10:16:17Z</time></trkpt><trkpt lat="46.024822315551546" lon="13.381025422503786"><ele>79.0</ele><time>2026-04-11T10:16:21Z</time></trkpt><trkpt lat="46.02488697562266" lon="13.381069295247011"><ele>79.0</ele><time>2026-04-11T10:16:26Z</time></trkpt><trkpt lat="46.024951740131215" lon="13.381110731755912"><ele>79.0</ele><time>2026-04-11T10:16:32Z</time></trkpt><trkpt lat="46.02500824785157" lon="13.381156692707538"><ele>79.0</ele><time>2026-04-11T10:16:37Z</time></trkpt><trkpt lat="46.025057345914774" lon="13.381215734069848"><ele>79.00000000000001</ele><time>2026-04-11T10:16:42Z</time></trkpt><trkpt lat="46.025118718588054" lon="13.381245995421688"><ele>79.0</ele><time>2026-04-11T10:16:47Z</time></trkpt><trkpt lat="46.02518395591495" lon="13.38126337879496"><ele>78.57142857142858</ele><time>2026-04-11T10:16:52Z</time></trkpt><trkpt lat="46.025255152111335" lon="13.381294831203482"><ele>78.14285714285714</ele><time>2026-04-11T10:16:57Z</time></trkpt><trkpt lat="46.02527885803688" lon="13.381385780215332"><ele>77.71428571428572</ele><time>2026-04-11T10:17:02Z</time></trkpt><trkpt lat="46.025226872050425" lon="13.381456473537307"><ele>77.28571428571429</ele><time>2026-04-11T10:17:10Z</time></trkpt><trkpt lat="46.02522878017179" lon="13.381549087041412"><ele>76.85714285714286</ele><time>2026-04-11T10:17:15Z</time></trkpt><trkpt lat="46.02528492106742" lon="13.381627808619253"><ele>76.42857142857143</ele><time>2026-04-11T10:17:21Z</time></trkpt><trkpt lat="46.02534200853089" lon="13.38169905532965"><ele>76.0</ele><time>2026-04-11T10:17:27Z</time></trkpt><trkpt lat="46.02538160232059" lon="13.381796888808823"><ele>76.0</ele><time>2026-04-11T10:17:33Z</time></trkpt><trkpt lat="46.025430270014205" lon="13.381854918632843"><ele>76.0</ele><time>2026-04-11T10:17:39Z</time></trkpt><trkpt lat="46.02546745178542" lon="13.381930904448394"><ele>76.0</ele><time>2026-04-11T10:17:47Z</time></trkpt><trkpt lat="46.02550350693794" lon="13.382018539154691"><ele>76.0</ele><time>2026-04-11T10:17:54Z</time></trkpt><trkpt lat="46.02554849858984" lon="13.382099406034117"><ele>76.0</ele><time>2026-04-11T10:18:00.999Z</time></trkpt><trkpt lat="46.025595401352845" lon="13.38216812764442"><ele>76.0</ele><time>2026-04-11T10:18:05.999Z</time></trkpt><trkpt lat="46.02565954110651" lon="13.38220716805331"><ele>76.0</ele><time>2026-04-11T10:18:12.999Z</time></trkpt><trkpt lat="46.02571169179987" lon="13.382272757004984"><ele>76.14285714285714</ele><time>2026-04-11T10:18:17.999Z</time></trkpt><trkpt lat="46.0257482920228" lon="13.382356444795557"><ele>76.28571428571429</ele><time>2026-04-11T10:18:23.999Z</time></trkpt><trkpt lat="46.02580493245144" lon="13.382417452243418"><ele>76.42857142857143</ele><time>2026-04-11T10:18:29.999Z</time></trkpt><trkpt lat="46.02585737252407" lon="13.382470941229899"><ele>76.57142857142857</ele><time>2026-04-11T10:18:35Z</time></trkpt><trkpt lat="46.025908626587686" lon="13.382540034682624"><ele>76.71428571428572</ele><time>2026-04-11T10:18:41Z</time></trkpt><trkpt lat="46.02596284505997" lon="13.382591194999577"><ele>76.85714285714286</ele><time>2026-04-11T10:18:47Z</time></trkpt><trkpt lat="46.02589771282932" lon="13.382578121298712"><ele>77.0</ele><time>2026-04-11T10:19:10Z</time></trkpt><trkpt lat="46.02584322951315" lon="13.382525970796591"><ele>77.14285714285714</ele><time>2026-04-11T10:19:16Z</time></trkpt><trkpt lat="46.02577608355196" lon="13.382473104713956"><ele>77.28571428571428</ele><time>2026-04-11T10:19:23Z</time></trkpt><trkpt lat="46.02571767562272" lon="13.382409572510074"><ele>77.42857142857143</ele><time>2026-04-11T10:19:29Z</time></trkpt><trkpt lat="46.02565780825637" lon="13.38235569879591"><ele>77.57142857142857</ele><time>2026-04-11T10:19:35Z</time></trkpt><trkpt lat="46.025608522463074" lon="13.382295141925722"><ele>77.71428571428571</ele><time>2026-04-11T10:19:41Z</time></trkpt><trkpt lat="46.02556314737571" lon="13.382227985068107"><ele>77.85714285714286</ele><time>2026-04-11T10:19:47Z</time></trkpt><trkpt lat="46.02551625919261" lon="13.382147759026068"><ele>78.0</ele><time>2026-04-11T10:19:54Z</time></trkpt><trkpt lat="46.02547356977657" lon="13.382068727752387"><ele>77.71428571428572</ele><time>2026-04-11T10:19:59Z</time></trkpt><trkpt lat="46.02542334971166" lon="13.381985501978853"><ele>77.42857142857142</ele><time>2026-04-11T10:20:04Z</time></trkpt><trkpt lat="46.025384867861796" lon="13.381893010549149"><ele>77.14285714285714</ele><time>2026-04-11T10:20:10Z</time></trkpt><trkpt lat="46.02534971047376" lon="13.381815043978278"><ele>76.85714285714286</ele><time>2026-04-11T10:20:17Z</time></trkpt><trkpt lat="46.025297787353935" lon="13.381748057836745"><ele>76.57142857142858</ele><time>2026-04-11T10:20:32Z</time></trkpt><trkpt lat="46.025242774273025" lon="13.381694388050423"><ele>76.28571428571428</ele><time>2026-04-11T10:20:38Z</time></trkpt><trkpt lat="46.02519430195348" lon="13.381627831769112"><ele>76.0</ele><time>2026-04-11T10:20:45Z</time></trkpt><trkpt lat="46.025171874861066" lon="13.381540298356894"><ele>76.0</ele><time>2026-04-11T10:20:52Z</time></trkpt><trkpt lat="46.02514250632967" lon="13.381456677377683"><ele>76.0</ele><time>2026-04-11T10:20:59Z</time></trkpt><trkpt lat="46.02506109830893" lon="13.38145346584592"><ele>76.0</ele><time>2026-04-11T10:21:03Z</time></trkpt><trkpt lat="46.02500206188341" lon="13.381417572446054"><ele>76.0</ele><time>2026-04-11T10:21:08Z</time></trkpt><trkpt lat="46.02495038518001" lon="13.381347653906898"><ele>76.0</ele><time>2026-04-11T10:21:13Z</time></trkpt><trkpt lat="46.02490019686775" lon="13.381285196482333"><ele>76.0</ele><time>2026-04-11T10:21:19Z</time></trkpt><trkpt lat="46.02484831046821" lon="13.38122221411784"><ele>76.0</ele><time>2026-04-11T10:21:24Z</time></trkpt><trkpt lat="46.02479370143622" lon="13.381175946152705"><ele>76.42857142857143</ele><time>2026-04-11T10:21:30Z</time></trkpt><trkpt lat="46.02473519582387" lon="13.381114908972984"><ele>76.85714285714286</ele><time>2026-04-11T10:21:35Z</time></trkpt><trkpt lat="46.02467587809084" lon="13.381067402150144"><ele>77.28571428571429</ele><time>2026-04-11T10:21:41Z</time></trkpt><trkpt lat="46.02463010386958" lon="13.38099869116638"><ele>77.71428571428572</ele><time>2026-04-11T10:21:47Z</time></trkpt><trkpt lat="46.02457636951035" lon="13.380932691923247"><ele>78.14285714285714</ele><time>2026-04-11T10:21:53Z</time></trkpt><trkpt lat="46.024530658928356" lon="13.38085993441116"><ele>78.57142857142858</ele><time>2026-04-11T10:21:59Z</time></trkpt><trkpt lat="46.024510461701745" lon="13.380759623223357"><ele>79.0</ele><time>2026-04-11T10:22:06Z</time></trkpt><trkpt lat="46.02450300141444" lon="13.380664910085917"><ele>79.00000000000001</ele><time>2026-04-11T10:22:15Z</time></trkpt><trkpt lat="46.024465137139316" lon="13.380575286969615"><ele>79.0</ele><time>2026-04-11T10:22:22Z</time></trkpt><trkpt lat="46.02440655861797" lon="13.380538516151361"><ele>79.0</ele><time>2026-04-11T10:22:26Z</time></trkpt><trkpt lat="46.024337207052014" lon="13.38053225876182"><ele>79.0</ele><time>2026-04-11T10:22:31Z</time></trkpt><trkpt lat="46.024274608062456" lon="13.380583887770273"><ele>79.0</ele><time>2026-04-11T10:22:36Z</time></trkpt><trkpt lat="46.02423042965337" lon="13.380650352492191"><ele>79.00000000000001</ele><time>2026-04-11T10:22:42Z</time></trkpt><trkpt lat="46.02416211363212" lon="13.380641681549523"><ele>79.0</ele><time>2026-04-11T10:22:48Z</time></trkpt><trkpt lat="46.02410175898768" lon="13.380606328826111"><ele>78.85714285714286</ele><time>2026-04-11T10:22:57Z</time></trkpt><trkpt lat="46.02413947319917" lon="13.38053344578358"><ele>78.71428571428572</ele><time>2026-04-11T10:23:06Z</time></trkpt><trkpt lat="46.024126247912214" lon="13.38044039470946"><ele>78.57142857142858</ele><time>2026-04-11T10:23:10Z</time></trkpt><trkpt lat="46.024101171414905" lon="13.38035435566812"><ele>78.42857142857143</ele><time>2026-04-11T10:23:18Z</time></trkpt><trkpt lat="46.02403933720691" lon="13.380287708990146"><ele>78.28571428571428</ele><time>2026-04-11T10:23:31Z</time></trkpt><trkpt lat="46.0239906796893" lon="13.380221801259562"><ele>78.14285714285715</ele><time>2026-04-11T10:23:36Z</time></trkpt><trkpt lat="46.02392820685729" lon="13.38016140532946"><ele>78.0</ele><time>2026-04-11T10:23:42Z</time></trkpt><trkpt lat="46.02388927267623" lon="13.380088367764975"><ele>77.57142857142857</ele><time>2026-04-11T10:23:48Z</time></trkpt><trkpt lat="46.02383237415012" lon="13.38001903096465"><ele>77.14285714285714</ele><time>2026-04-11T10:23:55Z</time></trkpt><trkpt lat="46.02377151172268" lon="13.379968940929611"><ele>76.71428571428571</ele><time>2026-04-11T10:24:00Z</time></trkpt><trkpt lat="46.02370325062859" lon="13.37994579648369"><ele>76.28571428571428</ele><time>2026-04-11T10:24:05Z</time></trkpt><trkpt lat="46.02364298609061" lon="13.379911785650553"><ele>75.85714285714286</ele><time>2026-04-11T10:24:10Z</time></trkpt><trkpt lat="46.02357670208183" lon="13.379916239132097"><ele>75.42857142857142</ele><time>2026-04-11T10:24:16Z</time></trkpt><trkpt lat="46.023518043757676" lon="13.37986605427149"><ele>75.0</ele><time>2026-04-11T10:24:25Z</time></trkpt><trkpt lat="46.02349205187158" lon="13.379781093457725"><ele>74.99999999999999</ele><time>2026-04-11T10:24:32Z</time></trkpt><trkpt lat="46.02344163883436" lon="13.379698950905698"><ele>75.0</ele><time>2026-04-11T10:24:39Z</time></trkpt><trkpt lat="46.02337773648017" lon="13.379652253960456"><ele>75.0</ele><time>2026-04-11T10:24:44Z</time></trkpt><trkpt lat="46.02331511306319" lon="13.379612657541088"><ele>75.0</ele><time>2026-04-11T10:24:50Z</time></trkpt><trkpt lat="46.0232538030588" lon="13.37955295999092"><ele>75.0</ele><time>2026-04-11T10:24:56Z</time></trkpt><trkpt lat="46.023199321339355" lon="13.37950207858097"><ele>74.99999999999999</ele><time>2026-04-11T10:25:01Z</time></trkpt><trkpt lat="46.0231397563887" lon="13.37944220800347"><ele>75.0</ele><time>2026-04-11T10:25:07Z</time></trkpt><trkpt lat="46.02309011921652" lon="13.379367915320993"><ele>74.57142857142857</ele><time>2026-04-11T10:25:13Z</time></trkpt><trkpt lat="46.02303229092719" lon="13.37930864657141"><ele>74.14285714285714</ele><time>2026-04-11T10:25:19Z</time></trkpt><trkpt lat="46.022987845992326" lon="13.379226110713306"><ele>73.71428571428572</ele><time>2026-04-11T10:25:27Z</time></trkpt><trkpt lat="46.02294220503886" lon="13.379146608687702"><ele>73.28571428571428</ele><time>2026-04-11T10:25:34Z</time></trkpt><trkpt lat="46.022884198741274" lon="13.379108760438015"><ele>72.85714285714286</ele><time>2026-04-11T10:25:39Z</time></trkpt><trkpt lat="46.02281937976994" lon="13.379088549316865"><ele>72.42857142857143</ele><time>2026-04-11T10:25:44Z</time></trkpt><trkpt lat="46.022751878603025" lon="13.379053977132017"><ele>72.0</ele><time>2026-04-11T10:25:50Z</time></trkpt><trkpt lat="46.02268506955242" lon="13.379015907651503"><ele>72.00000000000001</ele><time>2026-04-11T10:25:56Z</time></trkpt><trkpt lat="46.022622554246745" lon="13.37897416845441"><ele>72.0</ele><time>2026-04-11T10:26:02Z</time></trkpt><trkpt lat="46.02255632886384" lon="13.378941324407267"><ele>72.0</ele><time>2026-04-11T10:26:08.001Z</time></trkpt><trkpt lat="46.02249892014832" lon="13.378899940359743"><ele>72.0</ele><time>2026-04-11T10:26:13Z</time></trkpt><trkpt lat="46.02243038887052" lon="13.378856443632491"><ele>72.0</ele><time>2026-04-11T10:26:19Z</time></trkpt><trkpt lat="46.02238138988208" lon="13.378795292332615"><ele>72.00000000000001</ele><time>2026-04-11T10:26:24Z</time></trkpt><trkpt lat="46.0223256310973" lon="13.37873821860189"><ele>72.0</ele><time>2026-04-11T10:26:30Z</time></trkpt><trkpt lat="46.022274672153586" lon="13.37867417694401"><ele>72.00000000000001</ele><time>2026-04-11T10:26:35Z</time></trkpt><trkpt lat="46.02221276550109" lon="13.378615087450052"><ele>72.0</ele><time>2026-04-11T10:26:42Z</time></trkpt><trkpt lat="46.02219331845699" lon="13.378528103219107"><ele>72.0</ele><time>2026-04-11T10:26:49Z</time></trkpt><trkpt lat="46.0221816378145" lon="13.378427301475314"><ele>72.0</ele><time>2026-04-11T10:26:56Z</time></trkpt><trkpt lat="46.02224715996911" lon="13.378410148732016"><ele>72.0</ele><time>2026-04-11T10:27:05Z</time></trkpt><trkpt lat="46.02231436549684" lon="13.378461666985181"><ele>72.00000000000001</ele><time>2026-04-11T10:27:12Z</time></trkpt><trkpt lat="46.02238188548302" lon="13.378483713475976"><ele>72.0</ele><time>2026-04-11T10:27:18Z</time></trkpt><trkpt lat="46.02245576157569" lon="13.378468195661274"><ele>72.00000000000001</ele><time>2026-04-11T10:27:22Z</time></trkpt><trkpt lat="46.02251812625069" lon="13.378406723083833"><ele>72.0</ele><time>2026-04-11T10:27:27Z</time></trkpt><trkpt lat="46.02257835146142" lon="13.378356216273405"><ele>72.0</ele><time>2026-04-11T10:27:32Z</time></trkpt><trkpt lat="46.0226415993473" lon="13.378320164728327"><ele>72.0</ele><time>2026-04-11T10:27:37Z</time></trkpt><trkpt lat="46.02270284664194" lon="13.378259816604812"><ele>72.0</ele><time>2026-04-11T10:27:43Z</time></trkpt><trkpt lat="46.022664407264834" lon="13.37816804083047"><ele>72.00000000000001</ele><time>2026-04-11T10:27:50Z</time></trkpt><trkpt lat="46.022598484355626" lon="13.378137340958451"><ele>72.0</ele><time>2026-04-11T10:27:56Z</time></trkpt><trkpt lat="46.02252299672986" lon="13.378129606910548"><ele>72.00000000000001</ele><time>2026-04-11T10:28:02Z</time></trkpt><trkpt lat="46.02245492832208" lon="13.378119092581107"><ele>72.0</ele><time>2026-04-11T10:28:08Z</time></trkpt><trkpt lat="46.02239066369855" lon="13.37815383218752"><ele>72.0</ele><time>2026-04-11T10:28:14Z</time></trkpt><trkpt lat="46.022336913671474" lon="13.378203569423496"><ele>72.0</ele><time>2026-04-11T10:28:20Z</time></trkpt><trkpt lat="46.0222749376713" lon="13.378277510269108"><ele>72.0</ele><time>2026-04-11T10:28:27Z</time></trkpt><trkpt lat="46.02221143739754" lon="13.378294990447692"><ele>72.00000000000001</ele><time>2026-04-11T10:28:33Z</time></trkpt><trkpt lat="46.02214337481154" lon="13.378306365690255"><ele>72.0</ele><time>2026-04-11T10:28:39Z</time></trkpt><trkpt lat="46.0220693930847" lon="13.37831679707819"><ele>72.00000000000001</ele><time>2026-04-11T10:28:45Z</time></trkpt><trkpt lat="46.0219985753247" lon="13.378319715424512"><ele>72.0</ele><time>2026-04-11T10:28:52Z</time></trkpt><trkpt lat="46.02195830671639" lon="13.378239729858334"><ele>72.0</ele><time>2026-04-11T10:28:59Z</time></trkpt><trkpt lat="46.021981476733465" lon="13.378141751241552"><ele>72.0</ele><time>2026-04-11T10:29:05Z</time></trkpt><trkpt lat="46.021984241775925" lon="13.378044566721277"><ele>72.0</ele><time>2026-04-11T10:29:12Z</time></trkpt><trkpt lat="46.02194017234543" lon="13.377951490266712"><ele>72.00000000000001</ele><time>2026-04-11T10:29:19Z</time></trkpt><trkpt lat="46.02188454989774" lon="13.377885602239916"><ele>72.0</ele><time>2026-04-11T10:29:25Z</time></trkpt><trkpt lat="46.02183175349301" lon="13.377817290198122"><ele>72.57142857142858</ele><time>2026-04-11T10:29:31Z</time></trkpt><trkpt lat="46.0217702099178" lon="13.37778817631981"><ele>73.14285714285714</ele><time>2026-04-11T10:29:37Z</time></trkpt><trkpt lat="46.021707980137585" lon="13.377768266690412"><ele>73.71428571428572</ele><time>2026-04-11T10:29:42Z</time></trkpt><trkpt lat="46.0216384093846" lon="13.377775562948727"><ele>74.28571428571429</ele><time>2026-04-11T10:29:48Z</time></trkpt><trkpt lat="46.021554151652374" lon="13.377772038043544"><ele>74.85714285714286</ele><time>2026-04-11T10:29:54Z</time></trkpt><trkpt lat="46.02149204772085" lon="13.377791403204718"><ele>75.42857142857143</ele><time>2026-04-11T10:30:00Z</time></trkpt><trkpt lat="46.02144130699228" lon="13.377855113018692"><ele>76.0</ele><time>2026-04-11T10:30:07Z</time></trkpt><trkpt lat="46.02137262197045" lon="13.37787635390758"><ele>76.42857142857143</ele><time>2026-04-11T10:30:13Z</time></trkpt><trkpt lat="46.02130714192405" lon="13.377889980390776"><ele>76.85714285714286</ele><time>2026-04-11T10:30:18Z</time></trkpt><trkpt lat="46.02124391110121" lon="13.377938711136888"><ele>77.28571428571429</ele><time>2026-04-11T10:30:24Z</time></trkpt><trkpt lat="46.02118883007087" lon="13.377993299164082"><ele>77.71428571428572</ele><time>2026-04-11T10:30:31Z</time></trkpt><trkpt lat="46.021128030180016" lon="13.378034185270018"><ele>78.14285714285714</ele><time>2026-04-11T10:30:36Z</time></trkpt><trkpt lat="46.02114239662932" lon="13.378135490929628"><ele>78.57142857142858</ele><time>2026-04-11T10:30:42Z</time></trkpt><trkpt lat="46.021205880076636" lon="13.37816209192513"><ele>79.0</ele><time>2026-04-11T10:30:49Z</time></trkpt><trkpt lat="46.021276930281125" lon="13.378143206947218"><ele>79.00000000000001</ele><time>2026-04-11T10:30:55Z</time></trkpt><trkpt lat="46.02134305805103" lon="13.378134969873347"><ele>79.0</ele><time>2026-04-11T10:31:00Z</time></trkpt><trkpt lat="46.021405047937726" lon="13.378105880660303"><ele>79.0</ele><time>2026-04-11T10:31:05Z</time></trkpt><trkpt lat="46.02146683140312" lon="13.378057397575127"><ele>79.0</ele><time>2026-04-11T10:31:11Z</time></trkpt><trkpt lat="46.0215212732239" lon="13.378009071485788"><ele>79.0</ele><time>2026-04-11T10:31:18Z</time></trkpt><trkpt lat="46.02159238258024" lon="13.378015961700221"><ele>79.00000000000001</ele><time>2026-04-11T10:31:25Z</time></trkpt><trkpt lat="46.021625908153574" lon="13.378097535868262"><ele>79.0</ele><time>2026-04-11T10:31:32Z</time></trkpt><trkpt lat="46.02159385392084" lon="13.378191979775027"><ele>78.00000000000001</ele><time>2026-04-11T10:31:38Z</time></trkpt><trkpt lat="46.02156609464886" lon="13.378279474839498"><ele>77.0</ele><time>2026-04-11T10:31:44Z</time></trkpt><trkpt lat="46.02154925269298" lon="13.378371209082525"><ele>76.0</ele><time>2026-04-11T10:31:50Z</time></trkpt><trkpt lat="46.021581817093804" lon="13.37845387006676"><ele>75.0</ele><time>2026-04-11T10:31:55Z</time></trkpt><trkpt lat="46.02162886582145" lon="13.378527650674314"><ele>74.0</ele><time>2026-04-11T10:32:02Z</time></trkpt><trkpt lat="46.02167831423243" lon="13.378600904479972"><ele>73.00000000000001</ele><time>2026-04-11T10:32:08Z</time></trkpt><trkpt lat="46.021739202882586" lon="13.378627362596115"><ele>72.0</ele><time>2026-04-11T10:32:13Z</time></trkpt><trkpt lat="46.021803496991694" lon="13.378622119196624"><ele>72.00000000000001</ele><time>2026-04-11T10:32:19Z</time></trkpt><trkpt lat="46.02186806239887" lon="13.378587088579257"><ele>72.0</ele><time>2026-04-11T10:32:25Z</time></trkpt><trkpt lat="46.02192141668594" lon="13.37853863976362"><ele>72.0</ele><time>2026-04-11T10:32:31Z</time></trkpt><trkpt lat="46.02198393896016" lon="13.378504734524478"><ele>72.0</ele><time>2026-04-11T10:32:37Z</time></trkpt><trkpt lat="46.02205221816609" lon="13.378498586224767"><ele>72.0</ele><time>2026-04-11T10:32:43Z</time></trkpt><trkpt lat="46.02206886636027" lon="13.378596721629254"><ele>72.00000000000001</ele><time>2026-04-11T10:32:50Z</time></trkpt><trkpt lat="46.02200216503183" lon="13.378622750794076"><ele>72.0</ele><time>2026-04-11T10:32:56Z</time></trkpt><trkpt lat="46.02194523345228" lon="13.378662570748162"><ele>72.00000000000001</ele><time>2026-04-11T10:33:01Z</time></trkpt><trkpt lat="46.02188327330044" lon="13.378695805801724"><ele>72.0</ele><time>2026-04-11T10:33:07Z</time></trkpt><trkpt lat="46.02181908660004" lon="13.37870167592104"><ele>72.0</ele><time>2026-04-11T10:33:13Z</time></trkpt><trkpt lat="46.021757776913304" lon="13.378679205842065"><ele>72.0</ele><time>2026-04-11T10:33:19Z</time></trkpt><trkpt lat="46.02169237234436" lon="13.378680938879421"><ele>72.0</ele><time>2026-04-11T10:33:24Z</time></trkpt><trkpt lat="46.02162329791506" lon="13.378677107399293"><ele>72.00000000000001</ele><time>2026-04-11T10:33:29Z</time></trkpt><trkpt lat="46.021553429620376" lon="13.378699042562664"><ele>72.0</ele><time>2026-04-11T10:33:36Z</time></trkpt><trkpt lat="46.02148309243701" lon="13.378694890293184"><ele>71.71428571428572</ele><time>2026-04-11T10:33:43Z</time></trkpt><trkpt lat="46.02140777970932" lon="13.37868228379641"><ele>71.42857142857143</ele><time>2026-04-11T10:33:49Z</time></trkpt><trkpt lat="46.02133430788184" lon="13.378677003852072"><ele>71.14285714285714</ele><time>2026-04-11T10:33:55Z</time></trkpt><trkpt lat="46.02126834411639" lon="13.378672538409528"><ele>70.85714285714286</ele><time>2026-04-11T10:34:01Z</time></trkpt><trkpt lat="46.02120980866973" lon="13.378626248628892"><ele>70.57142857142857</ele><time>2026-04-11T10:34:08Z</time></trkpt><trkpt lat="46.021229017056875" lon="13.378529497125609"><ele>70.28571428571429</ele><time>2026-04-11T10:34:17.001Z</time></trkpt><trkpt lat="46.021245155605015" lon="13.378418465022548"><ele>70.0</ele><time>2026-04-11T10:34:25Z</time></trkpt><trkpt lat="46.021245785042765" lon="13.37831933108947"><ele>70.0</ele><time>2026-04-11T10:34:38Z</time></trkpt><trkpt lat="46.02117462395881" lon="13.378267842601801"><ele>70.0</ele><time>2026-04-11T10:34:45Z</time></trkpt><trkpt lat="46.02111497044817" lon="13.37823564519636"><ele>70.0</ele><time>2026-04-11T10:34:52Z</time></trkpt><trkpt lat="46.02105134862082" lon="13.378249226943248"><ele>70.0</ele><time>2026-04-11T10:34:58Z</time></trkpt><trkpt lat="46.02100131559065" lon="13.378305244780924"><ele>70.0</ele><time>2026-04-11T10:35:03Z</time></trkpt><trkpt lat="46.02096175503576" lon="13.378377544359795"><ele>70.0</ele><time>2026-04-11T10:35:08Z</time></trkpt><trkpt lat="46.02091792121266" lon="13.37844319857732"><ele>70.0</ele><time>2026-04-11T10:35:14Z</time></trkpt><trkpt lat="46.020872908965885" lon="13.378508434967408"><ele>70.0</ele><time>2026-04-11T10:35:22Z</time></trkpt><trkpt lat="46.02082634756881" lon="13.378574058970257"><ele>70.0</ele><time>2026-04-11T10:35:38Z</time></trkpt><trkpt lat="46.02079697364077" lon="13.378655372568678"><ele>70.0</ele><time>2026-04-11T10:35:43Z</time></trkpt><trkpt lat="46.02080999912134" lon="13.378772851225104"><ele>70.0</ele><time>2026-04-11T10:37:41Z</time></trkpt><trkpt lat="46.02085621557217" lon="13.378835321506966"><ele>70.0</ele><time>2026-04-11T10:37:47Z</time></trkpt><trkpt lat="46.02088317876564" lon="13.378917425916095"><ele>70.0</ele><time>2026-04-11T10:37:56Z</time></trkpt><trkpt lat="46.02090557093749" lon="13.37900671961505"><ele>70.0</ele><time>2026-04-11T10:38:05Z</time></trkpt><trkpt lat="46.02094200180592" lon="13.379093518952777"><ele>70.14285714285714</ele><time>2026-04-11T10:38:12Z</time></trkpt><trkpt lat="46.021003284238645" lon="13.379162519551103"><ele>70.28571428571428</ele><time>2026-04-11T10:38:20Z</time></trkpt><trkpt lat="46.021069238926344" lon="13.379158454713338"><ele>70.42857142857143</ele><time>2026-04-11T10:38:25Z</time></trkpt><trkpt lat="46.02113395337407" lon="13.379130640615664"><ele>70.57142857142857</ele><time>2026-04-11T10:38:31Z</time></trkpt><trkpt lat="46.02119351241406" lon="13.379093496661529"><ele>70.71428571428571</ele><time>2026-04-11T10:38:35Z</time></trkpt><trkpt lat="46.021257047052984" lon="13.379054751756756"><ele>70.85714285714286</ele><time>2026-04-11T10:38:41Z</time></trkpt><trkpt lat="46.02131852372479" lon="13.379030086919483"><ele>71.0</ele><time>2026-04-11T10:38:46Z</time></trkpt><trkpt lat="46.021381879054566" lon="13.379022221400461"><ele>71.0</ele><time>2026-04-11T10:38:51Z</time></trkpt><trkpt lat="46.02144962565543" lon="13.379060296020207"><ele>71.0</ele><time>2026-04-11T10:38:56Z</time></trkpt><trkpt lat="46.02151340184445" lon="13.379089997310704"><ele>71.0</ele><time>2026-04-11T10:39:01Z</time></trkpt><trkpt lat="46.021583975837345" lon="13.37910329585432"><ele>71.0</ele><time>2026-04-11T10:39:07Z</time></trkpt><trkpt lat="46.02164697930873" lon="13.379117777893283"><ele>71.0</ele><time>2026-04-11T10:39:11Z</time></trkpt><trkpt lat="46.0217217920792" lon="13.37913035895216"><ele>71.0</ele><time>2026-04-11T10:39:17Z</time></trkpt><trkpt lat="46.021702583396966" lon="13.37922814159124"><ele>71.0</ele><time>2026-04-11T10:39:26Z</time></trkpt><trkpt lat="46.021635661453516" lon="13.37924377286665"><ele>71.0</ele><time>2026-04-11T10:39:31Z</time></trkpt><trkpt lat="46.02156463593844" lon="13.379262190990548"><ele>71.0</ele><time>2026-04-11T10:39:36Z</time></trkpt><trkpt lat="46.02151331407009" lon="13.37931853687075"><ele>71.0</ele><time>2026-04-11T10:39:41Z</time></trkpt><trkpt lat="46.02144863698013" lon="13.379357271247118"><ele>71.0</ele><time>2026-04-11T10:39:46Z</time></trkpt><trkpt lat="46.02142127260535" lon="13.379454516894818"><ele>71.0</ele><time>2026-04-11T10:39:50.999Z</time></trkpt><trkpt lat="46.02139965580579" lon="13.379553462106882"><ele>71.0</ele><time>2026-04-11T10:39:56.999Z</time></trkpt><trkpt lat="46.02138424723999" lon="13.379654946511417"><ele>71.0</ele><time>2026-04-11T10:40:02.999Z</time></trkpt><trkpt lat="46.02138295398736" lon="13.37976260825653"><ele>71.14285714285714</ele><time>2026-04-11T10:40:09.999Z</time></trkpt><trkpt lat="46.0213815098148" lon="13.379860366246906"><ele>71.28571428571428</ele><time>2026-04-11T10:40:15.999Z</time></trkpt><trkpt lat="46.02138911850367" lon="13.379955084897421"><ele>71.42857142857143</ele><time>2026-04-11T10:40:20.999Z</time></trkpt><trkpt lat="46.02139541473242" lon="13.38005107504069"><ele>71.57142857142857</ele><time>2026-04-11T10:40:25.999Z</time></trkpt><trkpt lat="46.02138044717996" lon="13.380144305566363"><ele>71.71428571428572</ele><time>2026-04-11T10:40:32.999Z</time></trkpt><trkpt lat="46.02134980463099" lon="13.380235589577921"><ele>71.85714285714286</ele><time>2026-04-11T10:40:38.999Z</time></trkpt><trkpt lat="46.02128942611535" lon="13.380273737064446"><ele>72.0</ele><time>2026-04-11T10:40:45.999Z</time></trkpt><trkpt lat="46.02122381389936" lon="13.380291977626552"><ele>72.00000000000001</ele><time>2026-04-11T10:40:51.999Z</time></trkpt><trkpt lat="46.02116080197731" lon="13.380312420978195"><ele>72.0</ele><time>2026-04-11T10:40:57Z</time></trkpt><trkpt lat="46.02109174688698" lon="13.38034300895"><ele>72.0</ele><time>2026-04-11T10:41:03Z</time></trkpt><trkpt lat="46.02102893931088" lon="13.380386952681295"><ele>72.0</ele><time>2026-04-11T10:41:08Z</time></trkpt><trkpt lat="46.02096987330998" lon="13.380420355016287"><ele>72.0</ele><time>2026-04-11T10:41:13Z</time></trkpt><trkpt lat="46.02090059387095" lon="13.380474161423736"><ele>72.00000000000001</ele><time>2026-04-11T10:41:19Z</time></trkpt><trkpt lat="46.02084511862548" lon="13.380517533035961"><ele>72.0</ele><time>2026-04-11T10:41:24Z</time></trkpt><trkpt lat="46.02078483251509" lon="13.38055652069686"><ele>72.14285714285715</ele><time>2026-04-11T10:41:29Z</time></trkpt><trkpt lat="46.02071962590125" lon="13.380578892300685"><ele>72.28571428571429</ele><time>2026-04-11T10:41:34Z</time></trkpt><trkpt lat="46.020659703700325" lon="13.380616597808617"><ele>72.42857142857143</ele><time>2026-04-11T10:41:39Z</time></trkpt><trkpt lat="46.02059475425182" lon="13.3806433734711"><ele>72.57142857142858</ele><time>2026-04-11T10:41:45Z</time></trkpt><trkpt lat="46.020539124959875" lon="13.380688336587916"><ele>72.71428571428572</ele><time>2026-04-11T10:41:50Z</time></trkpt><trkpt lat="46.02056840029716" lon="13.380781329608435"><ele>72.85714285714286</ele><time>2026-04-11T10:41:53.998Z</time></trkpt><trkpt lat="46.020638182384616" lon="13.38081896710616"><ele>73.0</ele><time>2026-04-11T10:41:58.998Z</time></trkpt><trkpt lat="46.02070952582654" lon="13.380785880391713"><ele>73.0</ele><time>2026-04-11T10:42:03.998Z</time></trkpt><trkpt lat="46.02078281749904" lon="13.380751367884677"><ele>73.0</ele><time>2026-04-11T10:42:09.999Z</time></trkpt><trkpt lat="46.02085815368164" lon="13.380715676187517"><ele>73.0</ele><time>2026-04-11T10:42:16.999Z</time></trkpt><trkpt lat="46.02092105627292" lon="13.380727530531594"><ele>73.0</ele><time>2026-04-11T10:42:21.999Z</time></trkpt><trkpt lat="46.02097913101404" lon="13.380789048045564"><ele>73.0</ele><time>2026-04-11T10:42:27.999Z</time></trkpt><trkpt lat="46.02102061358606" lon="13.380870047768887"><ele>73.0</ele><time>2026-04-11T10:42:33.999Z</time></trkpt><trkpt lat="46.02104856898564" lon="13.380961241658241"><ele>73.0</ele><time>2026-04-11T10:42:39.999Z</time></trkpt><trkpt lat="46.021072429783544" lon="13.381069525222031"><ele>73.57142857142857</ele><time>2026-04-11T10:42:45.999Z</time></trkpt><trkpt lat="46.021106318239944" lon="13.381166610862095"><ele>74.14285714285714</ele><time>2026-04-11T10:42:52Z</time></trkpt><trkpt lat="46.02112592348952" lon="13.38125541743888"><ele>74.71428571428572</ele><time>2026-04-11T10:42:57Z</time></trkpt><trkpt lat="46.02115526899297" lon="13.381345780121222"><ele>75.28571428571428</ele><time>2026-04-11T10:43:03Z</time></trkpt><trkpt lat="46.02114989419961" lon="13.381439371416782"><ele>75.85714285714286</ele><time>2026-04-11T10:43:08Z</time></trkpt><trkpt lat="46.021106596709636" lon="13.381513674728343"><ele>76.42857142857143</ele><time>2026-04-11T10:43:13Z</time></trkpt><trkpt lat="46.021043270402345" lon="13.381519753437289"><ele>77.0</ele><time>2026-04-11T10:43:18Z</time></trkpt><trkpt lat="46.02100119581808" lon="13.38143068083511"><ele>77.0</ele><time>2026-04-11T10:43:23Z</time></trkpt><trkpt lat="46.020992712041874" lon="13.381338027986956"><ele>77.0</ele><time>2026-04-11T10:43:27.999Z</time></trkpt><trkpt lat="46.02097766526194" lon="13.381246618875922"><ele>77.0</ele><time>2026-04-11T10:43:32.999Z</time></trkpt><trkpt lat="46.02096159492966" lon="13.381144792006573"><ele>77.0</ele><time>2026-04-11T10:43:38.999Z</time></trkpt><trkpt lat="46.02095443434849" lon="13.381050694479796"><ele>77.0</ele><time>2026-04-11T10:43:44.999Z</time></trkpt><trkpt lat="46.02092902817048" lon="13.380963876175457"><ele>77.0</ele><time>2026-04-11T10:43:50.999Z</time></trkpt><trkpt lat="46.020873451521716" lon="13.380900955646409"><ele>77.0</ele><time>2026-04-11T10:43:56.999Z</time></trkpt><trkpt lat="46.020803918560965" lon="13.380902889954157"><ele>77.14285714285714</ele><time>2026-04-11T10:44:02.997Z</time></trkpt><trkpt lat="46.02075187438546" lon="13.380970622833624"><ele>77.28571428571428</ele><time>2026-04-11T10:44:08.997Z</time></trkpt><trkpt lat="46.020736274664216" lon="13.381069872788505"><ele>77.42857142857143</ele><time>2026-04-11T10:44:14.998Z</time></trkpt><trkpt lat="46.020734437647356" lon="13.381161661009303"><ele>77.57142857142857</ele><time>2026-04-11T10:44:19.998Z</time></trkpt><trkpt lat="46.020748534567424" lon="13.381251798124175"><ele>77.71428571428571</ele><time>2026-04-11T10:44:24.998Z</time></trkpt><trkpt lat="46.020768978803346" lon="13.381350316301287"><ele>77.85714285714286</ele><time>2026-04-11T10:44:31.998Z</time></trkpt><trkpt lat="46.02079040508787" lon="13.381440392501668"><ele>78.0</ele><time>2026-04-11T10:44:36.999Z</time></trkpt><trkpt lat="46.02082072144034" lon="13.381524793239102"><ele>78.0</ele><time>2026-04-11T10:44:42.999Z</time></trkpt><trkpt lat="46.02087197678196" lon="13.38158747012231"><ele>78.0</ele><time>2026-04-11T10:44:48.999Z</time></trkpt><trkpt lat="46.02093119468299" lon="13.381656721393496"><ele>78.0</ele><time>2026-04-11T10:44:54.999Z</time></trkpt><trkpt lat="46.02099100591424" lon="13.381689047145846"><ele>78.0</ele><time>2026-04-11T10:44:59.999Z</time></trkpt><trkpt lat="46.02105541980154" lon="13.381710179078324"><ele>78.0</ele><time>2026-04-11T10:45:04.999Z</time></trkpt><trkpt lat="46.021127019348754" lon="13.381737660259077"><ele>78.0</ele><time>2026-04-11T10:45:10.999Z</time></trkpt><trkpt lat="46.02119450654038" lon="13.381744795213068"><ele>78.0</ele><time>2026-04-11T10:45:16.999Z</time></trkpt><trkpt lat="46.02126069109424" lon="13.38179399109137"><ele>78.0</ele><time>2026-04-11T10:45:22.999Z</time></trkpt><trkpt lat="46.02130009558009" lon="13.381880037463269"><ele>78.0</ele><time>2026-04-11T10:45:28.999Z</time></trkpt><trkpt lat="46.021327588977904" lon="13.381968555590596"><ele>78.0</ele><time>2026-04-11T10:45:34.999Z</time></trkpt><trkpt lat="46.021344998749775" lon="13.382061815201265"><ele>78.0</ele><time>2026-04-11T10:45:40Z</time></trkpt><trkpt lat="46.0213634841054" lon="13.382152681508465"><ele>78.0</ele><time>2026-04-11T10:45:46Z</time></trkpt><trkpt lat="46.02137356672171" lon="13.382246697199726"><ele>78.0</ele><time>2026-04-11T10:45:51Z</time></trkpt><trkpt lat="46.02137960654834" lon="13.382337431159181"><ele>78.0</ele><time>2026-04-11T10:45:56Z</time></trkpt><trkpt lat="46.021351799908125" lon="13.382428887176887"><ele>78.14285714285715</ele><time>2026-04-11T10:46:02Z</time></trkpt><trkpt lat="46.02130445602503" lon="13.38249161062778"><ele>78.28571428571428</ele><time>2026-04-11T10:46:07.998Z</time></trkpt><trkpt lat="46.021243002956695" lon="13.382529310493942"><ele>78.42857142857143</ele><time>2026-04-11T10:46:12.998Z</time></trkpt><trkpt lat="46.02118199616389" lon="13.382558674093108"><ele>78.57142857142858</ele><time>2026-04-11T10:46:17.998Z</time></trkpt><trkpt lat="46.02112881676536" lon="13.38260752406752"><ele>78.71428571428572</ele><time>2026-04-11T10:46:22.998Z</time></trkpt><trkpt lat="46.02112512504884" lon="13.382716739633526"><ele>78.85714285714286</ele><time>2026-04-11T10:46:28.999Z</time></trkpt><trkpt lat="46.021184718412876" lon="13.382750805476515"><ele>79.0</ele><time>2026-04-11T10:46:33.999Z</time></trkpt><trkpt lat="46.021258348215895" lon="13.382737801092926"><ele>79.00000000000001</ele><time>2026-04-11T10:46:39.999Z</time></trkpt><trkpt lat="46.02132924356067" lon="13.382703653821295"><ele>79.0</ele><time>2026-04-11T10:46:45.999Z</time></trkpt><trkpt lat="46.021404406379304" lon="13.382698012837945"><ele>79.0</ele><time>2026-04-11T10:46:51.999Z</time></trkpt><trkpt lat="46.02146316632751" lon="13.382737576855822"><ele>79.0</ele><time>2026-04-11T10:46:56.999Z</time></trkpt><trkpt lat="46.02147655898579" lon="13.382829624567334"><ele>79.0</ele><time>2026-04-11T10:47:01Z</time></trkpt><trkpt lat="46.021452776802114" lon="13.382924891767304"><ele>79.00000000000001</ele><time>2026-04-11T10:47:08Z</time></trkpt><trkpt lat="46.02139358219186" lon="13.38298231701713"><ele>79.0</ele><time>2026-04-11T10:47:14Z</time></trkpt><trkpt lat="46.02131736710643" lon="13.383009058718864"><ele>79.00000000000001</ele><time>2026-04-11T10:47:20Z</time></trkpt><trkpt lat="46.021239280421135" lon="13.383018884762949"><ele>79.0</ele><time>2026-04-11T10:47:26Z</time></trkpt><trkpt lat="46.02116452919653" lon="13.38301738818868"><ele>79.0</ele><time>2026-04-11T10:47:32Z</time></trkpt><trkpt lat="46.02108860427737" lon="13.382982132510449"><ele>79.0</ele><time>2026-04-11T10:47:38Z</time></trkpt><trkpt lat="46.02103053240833" lon="13.382939180746169"><ele>79.0</ele><time>2026-04-11T10:47:43Z</time></trkpt><trkpt lat="46.02099135454289" lon="13.382867607265352"><ele>79.00000000000001</ele><time>2026-04-11T10:47:48Z</time></trkpt><trkpt lat="46.02095691198256" lon="13.382773478921216"><ele>79.0</ele><time>2026-04-11T10:47:54Z</time></trkpt><trkpt lat="46.0209437827862" lon="13.38268296990685"><ele>79.00000000000001</ele><time>2026-04-11T10:47:59Z</time></trkpt><trkpt lat="46.02095026837654" lon="13.382578590613168"><ele>79.0</ele><time>2026-04-11T10:48:05.001Z</time></trkpt><trkpt lat="46.02099696746832" lon="13.382494101785399"><ele>79.0</ele><time>2026-04-11T10:48:10.998Z</time></trkpt><trkpt lat="46.02105905268983" lon="13.382446115391723"><ele>79.0</ele><time>2026-04-11T10:48:16.998Z</time></trkpt><trkpt lat="46.02111963328825" lon="13.382402661591414"><ele>79.0</ele><time>2026-04-11T10:48:21.999Z</time></trkpt><trkpt lat="46.021169568971416" lon="13.38233572703114"><ele>79.00000000000001</ele><time>2026-04-11T10:48:27.999Z</time></trkpt><trkpt lat="46.021192959388884" lon="13.382246505603396"><ele>79.0</ele><time>2026-04-11T10:48:32.999Z</time></trkpt><trkpt lat="46.021196853809755" lon="13.382144637491145"><ele>78.85714285714286</ele><time>2026-04-11T10:48:38.999Z</time></trkpt><trkpt lat="46.02118870018875" lon="13.382049235226964"><ele>78.71428571428572</ele><time>2026-04-11T10:48:45Z</time></trkpt><trkpt lat="46.021147319910426" lon="13.38196798881184"><ele>78.57142857142858</ele><time>2026-04-11T10:48:51Z</time></trkpt><trkpt lat="46.021079722381785" lon="13.381911833428607"><ele>78.42857142857143</ele><time>2026-04-11T10:48:57Z</time></trkpt><trkpt lat="46.02101032246193" lon="13.381917424091192"><ele>78.28571428571428</ele><time>2026-04-11T10:49:03Z</time></trkpt><trkpt lat="46.02095023635211" lon="13.381955082166439"><ele>78.14285714285715</ele><time>2026-04-11T10:49:09Z</time></trkpt><trkpt lat="46.02090095413289" lon="13.382037246741596"><ele>78.0</ele><time>2026-04-11T10:49:15Z</time></trkpt><trkpt lat="46.02087202232577" lon="13.382131650892049"><ele>78.14285714285715</ele><time>2026-04-11T10:49:21Z</time></trkpt><trkpt lat="46.0208526954807" lon="13.382232825123953"><ele>78.28571428571428</ele><time>2026-04-11T10:49:27.001Z</time></trkpt><trkpt lat="46.020832240191936" lon="13.382333252821594"><ele>78.42857142857143</ele><time>2026-04-11T10:49:33.001Z</time></trkpt><trkpt lat="46.02081457120997" lon="13.382420516408317"><ele>78.57142857142858</ele><time>2026-04-11T10:49:38.001Z</time></trkpt><trkpt lat="46.02078990968026" lon="13.382516789461247"><ele>78.71428571428572</ele><time>2026-04-11T10:49:44.001Z</time></trkpt><trkpt lat="46.020743922788306" lon="13.382593885934067"><ele>78.85714285714286</ele><time>2026-04-11T10:49:50.001Z</time></trkpt><trkpt lat="46.020679876478795" lon="13.382586218510452"><ele>79.0</ele><time>2026-04-11T10:49:55.001Z</time></trkpt><trkpt lat="46.02063762322402" lon="13.382504149746428"><ele>79.14285714285715</ele><time>2026-04-11T10:50:00.001Z</time></trkpt><trkpt lat="46.020619589858796" lon="13.382414228255605"><ele>79.28571428571429</ele><time>2026-04-11T10:50:05.001Z</time></trkpt><trkpt lat="46.02060471688795" lon="13.382318055758182"><ele>79.42857142857143</ele><time>2026-04-11T10:50:10.001Z</time></trkpt><trkpt lat="46.02060065704878" lon="13.382212106296054"><ele>79.57142857142858</ele><time>2026-04-11T10:50:15.999Z</time></trkpt><trkpt lat="46.020614367617945" lon="13.382095671048425"><ele>79.71428571428572</ele><time>2026-04-11T10:50:22.999Z</time></trkpt><trkpt lat="46.02061360737341" lon="13.381992913937301"><ele>79.85714285714286</ele><time>2026-04-11T10:50:29Z</time></trkpt><trkpt lat="46.02061689733391" lon="13.381896669544235"><ele>80.0</ele><time>2026-04-11T10:50:33.999Z</time></trkpt><trkpt lat="46.020646572048015" lon="13.381805439683298"><ele>79.71428571428571</ele><time>2026-04-11T10:50:39.999Z</time></trkpt><trkpt lat="46.020650537456625" lon="13.381700790798746"><ele>79.42857142857143</ele><time>2026-04-11T10:50:45.999Z</time></trkpt><trkpt lat="46.02065591999978" lon="13.381594648191435"><ele>79.14285714285714</ele><time>2026-04-11T10:50:51.999Z</time></trkpt><trkpt lat="46.02065026246696" lon="13.381503638987693"><ele>78.85714285714286</ele><time>2026-04-11T10:50:57Z</time></trkpt><trkpt lat="46.0206363741955" lon="13.381401696791174"><ele>78.57142857142857</ele><time>2026-04-11T10:51:03Z</time></trkpt><trkpt lat="46.020620027390954" lon="13.381300444643484"><ele>78.28571428571429</ele><time>2026-04-11T10:51:10Z</time></trkpt><trkpt lat="46.02059916866429" lon="13.381194271637227"><ele>78.0</ele><time>2026-04-11T10:51:17Z</time></trkpt><trkpt lat="46.02055135600198" lon="13.381132873480805"><ele>73.0</ele><time>2026-04-11T10:51:24Z</time></trkpt><trkpt lat="46.02050313284293" lon="13.381198273640752"><ele>73.0</ele><time>2026-04-11T10:51:28Z</time></trkpt><trkpt lat="46.020488637883936" lon="13.38129812518077"><ele>73.0</ele><time>2026-04-11T10:51:35Z</time></trkpt><trkpt lat="46.02044939501513" lon="13.381220847480394"><ele>73.0</ele><time>2026-04-11T10:51:41Z</time></trkpt><trkpt lat="46.0204441449814" lon="13.381116110544253"><ele>73.0</ele><time>2026-04-11T10:51:47.001Z</time></trkpt><trkpt lat="46.02043980444756" lon="13.381024476494927"><ele>73.0</ele><time>2026-04-11T10:51:53.001Z</time></trkpt><trkpt lat="46.0204002499341" lon="13.380941747978772"><ele>73.0</ele><time>2026-04-11T10:51:59.001Z</time></trkpt></trkseg></trk></gpx>